Latest Weather Observations for Julia Creek

IDQ60801

Issued at 10:42 pm EST Saturday 13 July 2024 (issued every 10 minutes, with the page automatically refreshed every 10 minutes)

About weather observations | Map of weather stations | Latest weather observations for QLD | Other Formats
Station Details ID: 029058 Name: JULIA CREEK AIRPORT Lat: -20.67 Lon: 141.72 Height: 122.5 m
Data from the previous 72 hours. | See also: Recent months at Julia Creek
Date/Time
EST
Temp
°C
App
Temp
°C
Dew
Point
°C
Rel
Hum
%
Delta-T
°C
Wind Press
QNH
hPa
Press
MSL
hPa
Rain since
9am
mm
Dir  Spd
km/h
Gust
km/h
Spd
kts
Gust
kts
13/10:30pm - - - - - S 15 17 8 9 1016.5 1016.2 0.0
13/10:00pm - - - - - S 17 19 9 10 1016.5 1016.2 0.0
13/09:30pm - - - - - S 17 20 9 11 1016.2 1015.9 0.0
13/09:00pm - - - - - S 13 15 7 8 1016.1 1015.8 0.0
13/08:30pm - - - - - S 15 17 8 9 1015.9 1015.6 0.0
13/08:00pm - - - - - SSE 17 17 9 9 1015.4 1015.1 0.0
13/07:30pm - - - - - SSE 15 19 8 10 1014.7 1014.4 0.0
13/07:00pm - - - - - S 15 17 8 9 1014.3 1014.0 0.0
13/06:30pm - - - - - S 15 17 8 9 1014.3 1014.0 0.0
13/06:00pm - - - - - SSE 15 19 8 10 1014.0 1013.7 0.0
13/05:30pm - - - - - S 22 26 12 14 1014.0 1013.7 0.0
13/05:00pm - - - - - S 22 32 12 17 1013.7 1013.5 0.0
13/04:30pm - - - - - SE 20 28 11 15 1013.5 1013.3 0.0
13/04:00pm - - - - - SE 19 30 10 16 1013.5 1013.3 0.0
13/03:30pm - - - - - SE 20 33 11 18 1013.5 1013.3 0.0
13/03:00pm - - - - - SSE 22 35 12 19 1013.6 1013.4 0.0
13/02:30pm - - - - - SE 20 30 11 16 1014.1 1013.8 0.0
13/02:00pm - - - - - SSE 22 32 12 17 1014.6 1014.3 0.0
13/01:30pm - - - - - SSE 24 37 13 20 1015.1 1014.8 0.0
13/01:00pm - - - - - SE 24 33 13 18 1015.3 1015.0 0.0
13/12:30pm - - - - - SE 26 39 14 21 1015.9 1015.6 0.0
13/12:00pm - - - - - SE 26 35 14 19 1016.4 1016.1 0.0
13/11:30am - - - - - SE 30 39 16 21 1016.8 1016.5 0.0
13/11:00am - - - - - SE 30 39 16 21 1017.2 1016.9 0.0
13/10:30am - - - - - SE 32 39 17 21 1017.7 1017.4 0.0
13/10:00am - - - - - SE 30 37 16 20 1017.9 1017.6 0.0
13/09:30am - - - - - SSE 24 32 13 17 1017.9 1017.6 0.0
13/09:00am - - - - - SSE 20 28 11 15 1017.7 1017.4 0.0
13/08:30am - - - - - S 13 19 7 10 1017.5 1017.2 0.0
13/08:00am - - - - - SSE 9 9 5 5 1017.1 1016.8 0.0
13/07:30am - - - - - SSE 9 11 5 6 1016.5 1016.2 0.0
13/07:00am - - - - - SSE 7 9 4 5 1016.3 1016.0 0.0
13/06:30am - - - - - S 13 13 7 7 1015.8 1015.5 0.0
13/06:00am - - - - - S 11 15 6 8 1015.5 1015.2 0.0
13/05:30am - - - - - S 15 17 8 9 1015.2 1014.9 0.0
13/05:00am - - - - - S 15 17 8 9 1014.9 1014.6 0.0
13/04:30am - - - - - S 15 15 8 8 1014.6 1014.3 0.0
13/04:00am - - - - - S 13 15 7 8 1014.3 1014.0 0.0
13/03:30am - - - - - S 13 15 7 8 1014.2 1013.9 0.0
13/03:00am - - - - - S 19 22 10 12 1014.0 1013.7 0.0
13/02:30am - - - - - S 19 26 10 14 1014.1 1013.8 0.0
13/02:00am - - - - - S 17 20 9 11 1014.2 1013.9 0.0
13/01:30am - - - - - S 15 19 8 10 1014.3 1014.0 0.0
13/01:00am - - - - - SSW 20 24 11 13 1014.2 1013.9 0.0
13/12:30am - - - - - SSW 20 26 11 14 1014.2 1013.9 0.0
13/12:00am - - - - - SSW 20 26 11 14 1014.3 1014.0 0.0
 
Date/Time
EST
Temp
°C
App
Temp
°C
Dew
Point
°C
Rel
Hum
%
Delta-T
°C
Wind Press
QNH
hPa
Press
MSL
hPa
Rain since
9am
mm
Dir  Spd
km/h
Gust
km/h
Spd
kts
Gust
kts
12/11:30pm - - - - - S 19 24 10 13 1014.4 1014.1 0.0
12/11:00pm - - - - - S 20 28 11 15 1014.4 1014.1 0.0
12/10:30pm - - - - - SSW 22 28 12 15 1014.5 1014.2 0.0
12/10:00pm - - - - - S 19 20 10 11 1014.3 1014.0 0.0
12/09:30pm - - - - - SSW 19 22 10 12 1014.3 1014.0 0.0
12/09:00pm - - - - - SSW 17 20 9 11 1014.1 1013.8 0.0
12/08:30pm - - - - - S 19 20 10 11 1013.6 1013.4 0.0
12/08:00pm - - - - - SSW 17 19 9 10 1013.3 1013.1 0.0
12/07:30pm - - - - - SSW 19 20 10 11 1012.9 1012.7 0.0
12/07:00pm - - - - - SW 13 15 7 8 1012.4 1012.2 0.0
12/06:30pm - - - - - SW 11 13 6 7 1012.0 1011.8 0.0
12/06:00pm - - - - - SW 15 17 8 9 1011.7 1011.5 0.0
12/05:30pm - - - - - SW 17 24 9 13 1011.4 1011.2 0.0
12/05:00pm - - - - - SW 19 24 10 13 1011.2 1011.0 0.0
12/04:30pm - - - - - SW 15 22 8 12 1011.0 1010.7 0.0
12/04:00pm - - - - - SW 13 19 7 10 1010.7 1010.4 0.0
12/03:30pm - - - - - WSW 13 20 7 11 1010.7 1010.4 0.0
12/03:00pm - - - - - W 15 26 8 14 1010.8 1010.5 0.0
12/02:30pm - - - - - W 13 20 7 11 1011.0 1010.7 0.0
12/02:00pm - - - - - WSW 11 19 6 10 1011.3 1011.1 0.0
12/01:30pm - - - - - WSW 13 22 7 12 1011.8 1011.6 0.0
12/01:00pm - - - - - SW 15 22 8 12 1012.4 1012.2 0.0
12/12:30pm - - - - - SSW 15 20 8 11 1013.0 1012.8 0.0
12/12:00pm - - - - - S 15 20 8 11 1013.6 1013.4 0.0
12/11:30am - - - - - SSE 15 24 8 13 1014.1 1013.8 0.0
12/11:00am - - - - - SSE 17 20 9 11 1014.5 1014.2 0.0
12/10:30am - - - - - SE 19 24 10 13 1015.1 1014.8 0.0
12/10:00am - - - - - SE 20 24 11 13 1015.2 1014.9 0.0
12/09:30am - - - - - SE 20 26 11 14 1015.2 1014.9 0.0
12/09:00am - - - - - SSE 20 26 11 14 1015.1 1014.8 0.0
12/08:30am - - - - - S 17 22 9 12 1014.9 1014.6 0.0
12/08:00am - - - - - SSW 19 26 10 14 1014.7 1014.4 0.0
12/07:30am - - - - - SSW 11 13 6 7 1013.8 1013.6 0.0
12/07:00am - - - - - S 13 15 7 8 1013.3 1013.1 0.0
12/06:30am - - - - - SE 13 13 7 7 1012.9 1012.7 0.0
12/06:00am - - - - - SE 11 13 6 7 1012.8 1012.6 0.0
12/05:30am - - - - - S 9 11 5 6 1012.8 1012.6 0.0
12/05:00am - - - - - S 11 13 6 7 1012.9 1012.7 0.0
12/04:30am - - - - - S 9 9 5 5 1012.7 1012.5 0.0
12/04:00am - - - - - SW 11 13 6 7 1012.5 1012.3 0.0
12/03:30am - - - - - SSW 11 13 6 7 1012.3 1012.1 0.0
12/03:00am - - - - - S 9 11 5 6 1012.2 1012.0 0.0
12/02:30am - - - - - S 11 11 6 6 1012.2 1012.0 0.0
12/02:06am - - - - - SSW 17 19 9 10 1012.3 1012.1 0.0
12/02:00am - - - - - SSW 17 19 9 10 1012.4 1012.2 0.0
12/01:47am - - - - - S 13 17 7 9 1012.5 1012.3 0.0
12/01:30am - - - - - S 9 11 5 6 1012.8 1012.6 0.0
12/01:00am - - - - - S 9 11 5 6 1013.0 1012.8 0.0
12/12:30am - - - - - SSW 15 17 8 9 1013.4 1013.2 0.0
12/12:00am - - - - - SSW 17 19 9 10 1013.7 1013.5 0.0
 
Date/Time
EST
Temp
°C
App
Temp
°C
Dew
Point
°C
Rel
Hum
%
Delta-T
°C
Wind Press
QNH
hPa
Press
MSL
hPa
Rain since
9am
mm
Dir  Spd
km/h
Gust
km/h
Spd
kts
Gust
kts
11/11:30pm - - - - - SSW 17 19 9 10 1014.1 1013.8 0.0
11/11:00pm - - - - - SW 15 17 8 9 1014.3 1014.0 0.0
11/10:30pm - - - - - SSW 9 13 5 7 1014.6 1014.3 0.0
11/10:00pm - - - - - SSW 13 15 7 8 1014.5 1014.2 0.0
11/09:30pm - - - - - SSW 13 15 7 8 1014.6 1014.3 0.0
11/09:00pm - - - - - SSW 15 17 8 9 1014.5 1014.2 0.0
11/08:30pm - - - - - SSW 17 19 9 10 1014.2 1013.9 0.0
11/08:00pm - - - - - SW 13 15 7 8 1014.1 1013.8 0.0
11/07:30pm - - - - - SW 15 17 8 9 1013.7 1013.5 0.0
11/07:00pm - - - - - SW 17 17 9 9 1013.5 1013.3 0.0
11/06:30pm - - - - - SW 13 15 7 8 1013.3 1013.1 0.0
11/06:00pm - - - - - W 13 15 7 8 1013.1 1012.9 0.0
11/05:30pm - - - - - WNW 9 11 5 6 1013.0 1012.8 0.0
11/05:00pm - - - - - WSW 7 13 4 7 1013.1 1012.9 0.0
11/04:30pm - - - - - NW 6 11 3 6 1013.1 1012.9 0.0
11/04:00pm - - - - - WNW 11 13 6 7 1013.1 1012.9 0.0
11/03:30pm - - - - - N 7 13 4 7 1013.2 1013.0 0.0
11/03:00pm - - - - - NW 13 20 7 11 1013.4 1013.2 0.0
11/02:30pm - - - - - W 9 17 5 9 1013.8 1013.6 0.0
11/02:00pm - - - - - WNW 9 15 5 8 1014.4 1014.1 0.0
11/01:30pm - - - - - W 11 19 6 10 1015.1 1014.8 0.0
11/01:00pm - - - - - SW 9 15 5 8 1015.7 1015.4 0.0
11/12:30pm - - - - - SE 9 15 5 8 1016.3 1016.0 0.0
11/12:00pm - - - - - ENE 7 11 4 6 1016.9 1016.6 0.0
11/11:30am - - - - - E 4 13 2 7 1017.4 1017.1 0.0
11/11:00am - - - - - SE 9 15 5 8 1017.8 1017.5 0.0
11/10:30am - - - - - SSE 11 15 6 8 1018.3 1018.1 0.0
11/10:00am - - - - - SSE 13 17 7 9 1018.7 1018.5 0.0
11/09:30am - - - - - SSE 11 17 6 9 1018.9 1018.7 0.0
11/09:00am - - - - - SSE 15 17 8 9 1018.9 1018.7 0.0
11/08:30am - - - - - SSE 15 19 8 10 1018.7 1018.5 0.0
11/08:00am - - - - - SSE 9 13 5 7 1018.5 1018.3 0.0
11/07:30am - - - - - S 9 9 5 5 1018.2 1018.0 0.0
11/07:00am - - - - - SSW 11 15 6 8 1017.9 1017.6 0.0
11/06:30am - - - - - SSW 13 15 7 8 1017.8 1017.5 0.0
11/06:00am - - - - - SSW 11 13 6 7 1017.7 1017.4 0.0
11/05:30am - - - - - SSW 11 13 6 7 1017.6 1017.3 0.0
11/05:00am - - - - - SSW 9 11 5 6 1017.8 1017.5 0.0
11/04:30am - - - - - SSW 11 13 6 7 1017.9 1017.6 0.0
11/04:00am - - - - - S 7 9 4 5 1017.8 1017.5 0.0
11/03:30am - - - - - SSW 9 11 5 6 1017.9 1017.6 0.0
11/03:00am - - - - - S 15 17 8 9 1017.9 1017.6 0.0
11/02:30am - - - - - S 19 22 10 12 1018.1 1017.9 0.0
11/02:00am - - - - - S 19 22 10 12 1018.3 1018.1 0.0
11/01:30am - - - - - S 19 22 10 12 1018.6 1018.4 0.0
11/01:00am - - - - - S 20 26 11 14 1018.7 1018.5 0.0
11/12:30am - - - - - SSE 17 24 9 13 1018.5 1018.3 0.0
11/12:00am - - - - - S 20 24 11 13 1018.2 1018.0 0.0
 
Date/Time
EST
Temp
°C
App
Temp
°C
Dew
Point
°C
Rel
Hum
%
Delta-T
°C
Wind Press
QNH
hPa
Press
MSL
hPa
Rain since
9am
mm
Dir  Spd
km/h
Gust
km/h
Spd
kts
Gust
kts
10/11:30pm - - - - - S 17 22 9 12 1018.7 1018.5 0.0
10/11:00pm - - - - - S 19 20 10 11 1018.6 1018.4 0.0

Other formats

Comma delimited format used in spreadsheet applications
http://www.bom.gov.au/fwo/IDQ60801/IDQ60801.94337.axf

JavaScript Object Notation format (JSON) in row-major order
http://www.bom.gov.au/fwo/IDQ60801/IDQ60801.94337.json

Data quality

Most of these data are generated automatically and are frequently updated. Quality checks on data are not normally performed. It is possible for incorrect values to appear. Refer to information at About Latest Weather Observations and please check the disclaimer before using these data.